Accueil
METAR-TAF:

METAR-TAF

Aéroports :

Rawlins Municipal Airport (Harvey Field)

Rawlins, Wyoming, États-Unis

latitude: 41-48-20N, longitude: 107-11-59W, altitude: 2077 m

Observation

Le bulletin a été fait il y a 31 minutes, à 02:53 UTC
Vent 13 kt de ouest
Température -2°C
Humidité 54%
Pression 1020 hPa
Visibilité: 16.1 km
Quelques nuages à une hauteur de 9000 ft

METAR: KRWL 170253Z AUTO 28013KT 10SM FEW090 M02/M10 A3013 RMK AO2 SLP234 T10221100 53006

Heure: 20:24 (03:24 UTC)

Prévision

Le bulletin a été fait il y a 4 heures et 3 minutes, à 23:21 UTC
Prévision valable du 17 à 00 UTC au 17 à 24 UTC
Vent 16 kt de ouest/sud-ouest avec des rafales jusqu'à 25 kt
Visibilité: 10 km
Ciel couvert à une hauteur de 25000 ft
A partir de 17 à 1700 UTC
Vent 22 kt de ouest/sud-ouest avec des rafales jusqu'à 30 kt
Visibilité: 10 km
Nuages épars à une hauteur de 9000 ft

TAF: KRWL 162321Z 1700/1724 25016G25KT P6SM OVC250 FM171700 25022G30KT P6SM SCT090

Observations et prévisions météorologiques de plus de 4000 aéroports (messages METAR et TAF).

Les stations disponibles sont représentées par des disques jaunes et rouges sur la carte.

Passer la souris dessus pour voir le nom de la station.

Cliquer dessus pour voir les observations et prévisions météorologiques.

Pour changer de carte: cliquez sur les boutons verts avec une croix noire pour zoomer, sur le bouton vert avec un tiret pour effectuer un zoom arrière, ou sur les flèches vertes pour les cartes adjacentes.


METAR-TAF: